sensor_id;sensor_type;location;lat;lon;timestamp;P1;durP1;ratioP1;P2;durP2;ratioP2
739;SDS011;354;42.694;23.336;2023-05-08T00:01:49;6.83;;;5.47;;
739;SDS011;354;42.694;23.336;2023-05-08T00:05:28;5.80;;;5.43;;
739;SDS011;354;42.694;23.336;2023-05-08T00:09:00;5.83;;;5.33;;
739;SDS011;354;42.694;23.336;2023-05-08T00:12:37;5.60;;;5.20;;
739;SDS011;354;42.694;23.336;2023-05-08T00:41:37;6.43;;;5.83;;
739;SDS011;354;42.694;23.336;2023-05-08T00:45:21;6.00;;;5.60;;
739;SDS011;354;42.694;23.336;2023-05-08T00:48:57;7.23;;;6.63;;
739;SDS011;354;42.694;23.336;2023-05-08T00:52:34;7.93;;;6.30;;
739;SDS011;354;42.694;23.336;2023-05-08T00:56:04;6.53;;;5.93;;
739;SDS011;354;42.694;23.336;2023-05-08T00:59:35;6.10;;;5.60;;
739;SDS011;354;42.694;23.336;2023-05-08T01:03:11;6.90;;;5.77;;
739;SDS011;354;42.694;23.336;2023-05-08T01:06:47;7.30;;;6.60;;
739;SDS011;354;42.694;23.336;2023-05-08T01:10:11;6.33;;;5.70;;
739;SDS011;354;42.694;23.336;2023-05-08T01:13:57;7.27;;;6.63;;
739;SDS011;354;42.694;23.336;2023-05-08T01:38:50;6.30;;;5.80;;
739;SDS011;354;42.694;23.336;2023-05-08T01:42:06;6.73;;;6.13;;
739;SDS011;354;42.694;23.336;2023-05-08T01:45:37;7.77;;;7.00;;
739;SDS011;354;42.694;23.336;2023-05-08T01:49:16;7.43;;;6.90;;
739;SDS011;354;42.694;23.336;2023-05-08T01:52:50;7.13;;;6.47;;
739;SDS011;354;42.694;23.336;2023-05-08T01:56:36;7.90;;;7.13;;
739;SDS011;354;42.694;23.336;2023-05-08T02:00:13;7.93;;;7.37;;
739;SDS011;354;42.694;23.336;2023-05-08T02:03:54;7.97;;;7.47;;
739;SDS011;354;42.694;23.336;2023-05-08T02:07:28;9.83;;;9.07;;
739;SDS011;354;42.694;23.336;2023-05-08T02:10:55;7.73;;;7.23;;
739;SDS011;354;42.694;23.336;2023-05-08T02:14:40;8.23;;;7.43;;
739;SDS011;354;42.694;23.336;2023-05-08T02:18:20;6.97;;;6.47;;
739;SDS011;354;42.694;23.336;2023-05-08T02:22:04;7.70;;;7.17;;
739;SDS011;354;42.694;23.336;2023-05-08T02:25:30;6.90;;;6.40;;
739;SDS011;354;42.694;23.336;2023-05-08T02:29:21;6.93;;;6.33;;
739;SDS011;354;42.694;23.336;2023-05-08T02:32:55;7.33;;;6.63;;
739;SDS011;354;42.694;23.336;2023-05-08T02:54:57;9.30;;;8.27;;
739;SDS011;354;42.694;23.336;2023-05-08T02:58:54;8.87;;;8.07;;
739;SDS011;354;42.694;23.336;2023-05-08T03:02:02;11.03;;;8.50;;
739;SDS011;354;42.694;23.336;2023-05-08T03:05:32;9.40;;;8.53;;
739;SDS011;354;42.694;23.336;2023-05-08T03:09:06;9.63;;;8.90;;
739;SDS011;354;42.694;23.336;2023-05-08T03:12:38;9.73;;;8.83;;
739;SDS011;354;42.694;23.336;2023-05-08T03:16:09;9.77;;;8.87;;
739;SDS011;354;42.694;23.336;2023-05-08T03:19:48;10.40;;;9.40;;
739;SDS011;354;42.694;23.336;2023-05-08T03:23:17;11.37;;;9.90;;
739;SDS011;354;42.694;23.336;2023-05-08T03:26:46;10.60;;;9.63;;
739;SDS011;354;42.694;23.336;2023-05-08T03:30:24;10.87;;;9.97;;
739;SDS011;354;42.694;23.336;2023-05-08T03:33:57;10.67;;;9.73;;
739;SDS011;354;42.694;23.336;2023-05-08T03:37:35;10.93;;;10.00;;
739;SDS011;354;42.694;23.336;2023-05-08T03:40:59;9.80;;;9.10;;
739;SDS011;354;42.694;23.336;2023-05-08T03:44:35;9.90;;;9.13;;
739;SDS011;354;42.694;23.336;2023-05-08T03:55:40;11.43;;;8.90;;
739;SDS011;354;42.694;23.336;2023-05-08T04:17:21;8.97;;;8.23;;
739;SDS011;354;42.694;23.336;2023-05-08T04:21:13;8.90;;;8.00;;
739;SDS011;354;42.694;23.336;2023-05-08T04:25:00;7.17;;;6.47;;
739;SDS011;354;42.694;23.336;2023-05-08T04:32:05;8.17;;;6.77;;
739;SDS011;354;42.694;23.336;2023-05-08T04:35:34;8.07;;;7.37;;
739;SDS011;354;42.694;23.336;2023-05-08T04:42:39;9.17;;;8.30;;
739;SDS011;354;42.694;23.336;2023-05-08T04:46:02;9.30;;;8.40;;
739;SDS011;354;42.694;23.336;2023-05-08T04:49:50;11.37;;;8.90;;
739;SDS011;354;42.694;23.336;2023-05-08T04:57:09;9.50;;;8.27;;
739;SDS011;354;42.694;23.336;2023-05-08T05:00:51;10.97;;;9.77;;
739;SDS011;354;42.694;23.336;2023-05-08T05:04:41;8.70;;;8.00;;
739;SDS011;354;42.694;23.336;2023-05-08T05:08:18;9.43;;;8.53;;
739;SDS011;354;42.694;23.336;2023-05-08T05:11:56;10.60;;;9.03;;
739;SDS011;354;42.694;23.336;2023-05-08T05:15:36;10.43;;;8.37;;
739;SDS011;354;42.694;23.336;2023-05-08T05:19:11;9.73;;;8.80;;
739;SDS011;354;42.694;23.336;2023-05-08T05:22:47;10.57;;;9.47;;
739;SDS011;354;42.694;23.336;2023-05-08T05:26:24;14.67;;;13.10;;
739;SDS011;354;42.694;23.336;2023-05-08T05:40:58;9.90;;;8.93;;
739;SDS011;354;42.694;23.336;2023-05-08T05:48:04;9.50;;;8.57;;
739;SDS011;354;42.694;23.336;2023-05-08T05:58:11;8.45;;;7.60;;
739;SDS011;354;42.694;23.336;2023-05-08T06:01:37;9.57;;;8.35;;
739;SDS011;354;42.694;23.336;2023-05-08T06:05:08;9.02;;;7.72;;
739;SDS011;354;42.694;23.336;2023-05-08T06:08:36;9.43;;;8.20;;
739;SDS011;354;42.694;23.336;2023-05-08T06:12:01;8.50;;;7.63;;
739;SDS011;354;42.694;23.336;2023-05-08T06:15:06;10.38;;;8.48;;
739;SDS011;354;42.694;23.336;2023-05-08T06:18:32;12.45;;;8.38;;
739;SDS011;354;42.694;23.336;2023-05-08T06:21:28;9.60;;;8.40;;
739;SDS011;354;42.694;23.336;2023-05-08T06:24:33;10.15;;;9.10;;
739;SDS011;354;42.694;23.336;2023-05-08T06:27:59;9.43;;;8.52;;
739;SDS011;354;42.694;23.336;2023-05-08T06:45:18;10.45;;;8.88;;
739;SDS011;354;42.694;23.336;2023-05-08T07:06:27;9.98;;;8.80;;
739;SDS011;354;42.694;23.336;2023-05-08T12:27:15;8.18;;;7.43;;
739;SDS011;354;42.694;23.336;2023-05-08T15:53:23;7.47;;;6.87;;
739;SDS011;354;42.694;23.336;2023-05-08T16:00:58;8.50;;;7.80;;
739;SDS011;354;42.694;23.336;2023-05-08T16:08:13;8.50;;;7.90;;
739;SDS011;354;42.694;23.336;2023-05-08T16:33:20;9.10;;;8.20;;
